KSWF/SWF METAR and TAF weather

Enter ICAO airport designator
Station Type Date Time Source
KSWF METAR 2020/07/09 22:45 UTC NOAA

KSWF 092245Z 15012KT 10SM SCT040 30/20 A2998


Station Type Date Time Source
KSWF Decoded METAR 2020/07/09 22:45 UTC NOAA

Newburgh / Stewart, NY, United States (KSWF) 41-30N 074-06W
Jul 09, 2020 - 06:45 PM EDT / 2020.07.09 2245 UTC
Wind: from the SSE (150 degrees) at 14 MPH (12 KT):0
Visibility: 10 mile(s):0
Sky conditions: partly cloudy
Temperature: 86 F (30 C)
Dew Point: 68 F (20 C)
Relative Humidity: 55%
Pressure (altimeter): 29.98 in. Hg (1015 hPa)
ob: KSWF 092245Z 15012KT 10SM SCT040 30/20 A2998
cycle: 23

Station Type Date Time Source
KSWF TAF 2020/07/09 18:30 UTC NOAA

TAF KSWF 091729Z 0918/1024 21006KT P6SM SCT020 SCT040
FM100100 13004KT P6SM FEW030 SCT250
FM100400 VRB03KT P6SM FEW015 SCT250
FM100700 09005KT 6SM BR VCSH OVC009
FM101500 09010G15KT 5SM -RA BR OVC012 PROB30 1016/1018 12018G32KT 1SM +TSRA BKN007CB
AMD NOT SKED

Example: see airport list